Time;durP1;ratioP1;P1;durP2;ratioP2;P2;SDS_P1;SDS_P2;PMS_P1;PMS_P2;Temp;Humidity;BMP_temperature;BMP_pressure;BME280_temperature;BME280_humidity;BME280_pressure;Samples;Min_cycle;Max_cycle;Signal;HPM_P1;HPM_P2
2023/05/10 00:00:12;;;;;;;;;;;13.70;99.90;13.90;99410.00;;;;341392;28;94669;-87
2023/05/10 00:00:24;;;;;;;;;;;13.70;99.90;13.80;99416.00;;;;339143;28;82550;-86
2023/05/10 00:00:35;;;;;;;;;;;13.70;99.90;13.90;99411.00;;;;339970;28;92251;-88
2023/05/10 00:00:47;;;;;;;;;;;13.60;99.90;13.90;99422.00;;;;340493;28;83518;-88
2023/05/10 00:00:59;;;;;;;;;;;13.60;99.90;14.00;99416.00;;;;337349;28;94213;-88
2023/05/10 00:01:11;;;;;;;;;;;13.70;99.90;14.00;99422.00;;;;340378;28;83506;-87
2023/05/10 00:01:22;;;;;;;;;;;13.70;99.90;14.00;99422.00;;;;338606;28;95482;-88
2023/05/10 00:01:35;;;;;;;;;;;13.70;99.90;13.80;99416.00;;;;338093;28;83318;-88
2023/05/10 00:01:47;;;;;;;;;;;13.70;99.90;13.80;99425.00;;;;339943;28;96991;-87
2023/05/10 00:01:59;;;;;;;;;;;13.60;99.90;13.80;99422.00;;;;340698;28;83469;-87
2023/05/10 00:02:11;;;;;;;;;;;13.60;99.90;13.80;99430.00;;;;339311;28;93854;-88
2023/05/10 00:02:24;;;;;;;;;;;13.60;99.90;13.80;99431.00;;;;340692;28;82449;-87
2023/05/10 00:02:36;;;;;;;;;;;13.60;99.90;13.80;99431.00;;;;337102;28;96895;-87
2023/05/10 00:02:48;;;;;;;;;;;13.60;99.90;13.80;99422.00;;;;337960;28;83631;-87
2023/05/10 00:03:00;;;;;;;;;;;13.60;99.90;13.80;99431.00;;;;340023;28;93105;-88
2023/05/10 00:03:12;;;;;;;;;;;13.60;99.90;13.90;99438.00;;;;342057;28;83123;-87
2023/05/10 00:03:24;;;;;;;;;;;13.60;99.90;14.00;99431.00;;;;338462;28;96504;-87
2023/05/10 00:03:36;;;;;;;;;;;13.60;99.90;13.90;99425.00;;;;339436;28;82178;-86
2023/05/10 00:03:48;;;;;;;;;;;13.60;99.90;13.90;99429.00;;;;337352;28;93197;-88
2023/05/10 00:03:59;;;;;;;;;;;13.60;99.90;14.00;99438.00;;;;336513;28;83607;-88
2023/05/10 00:04:11;;;;;;;;;;;13.60;99.90;14.00;99438.00;;;;337375;28;93719;-88
2023/05/10 00:04:27;;;;;;;;;;;13.60;99.90;14.10;99439.00;;;;339512;28;83375;-88
2023/05/10 00:04:38;;;;;;;;;;;13.60;99.90;14.10;99439.00;;;;339599;28;95344;-87
2023/05/10 00:04:50;;;;;;;;;;;13.60;99.90;14.00;99442.00;;;;339450;28;82547;-87
2023/05/10 00:05:02;;;;;;;;;;;13.60;99.90;13.90;99445.00;;;;338255;28;97390;-87
2023/05/10 00:05:14;;;;;;;;;;;13.60;99.90;13.90;99450.00;;;;340572;28;83524;-87
2023/05/10 00:05:26;;;;;;;;;;;13.60;99.90;13.90;99439.00;;;;338571;28;94798;-88
2023/05/10 00:05:38;;;;;;;;;;;13.60;99.90;13.90;99438.00;;;;340816;28;83268;-87
2023/05/10 00:05:50;;;;;;;;;;;13.60;99.90;13.90;99438.00;;;;339980;28;94249;-88
2023/05/10 00:06:02;;;;;;;;;;;13.60;99.90;14.00;99445.00;;;;339371;28;83491;-87
2023/05/10 00:06:14;;;;;;;;;;;13.60;99.90;13.90;99436.00;;;;339761;28;94664;-87
2023/05/10 00:06:26;;;;;;;;;;;13.60;99.90;13.80;99440.00;;;;339394;28;83477;-88
2023/05/10 00:06:38;;;;;;;;;;;13.60;99.90;13.80;99437.00;;;;337126;28;95290;-87
2023/05/10 00:06:50;;;;;;;;;;;13.60;99.90;13.80;99436.00;;;;338151;28;83366;-88
2023/05/10 00:07:02;;;;;;;;;;;13.50;99.90;13.80;99436.00;;;;339773;28;96675;-87
2023/05/10 00:07:13;;;;;;;;;;;13.50;99.90;13.80;99438.00;;;;339235;28;83464;-87
2023/05/10 00:07:25;;;;;;;;;;;13.60;99.90;13.80;99437.00;;;;338598;28;96645;-88
2023/05/10 00:07:37;;;;;;;;;;;13.50;99.90;13.80;99437.00;;;;340654;28;82439;-88
2023/05/10 00:07:48;;;;;;;;;;;13.50;99.90;13.90;99437.00;;;;338611;28;93412;-87
2023/05/10 00:08:00;;;;;;;;;;;13.60;99.90;13.80;99435.00;;;;341887;28;83306;-87
2023/05/10 00:08:12;;;;;;;;;;;13.50;99.90;13.80;99447.00;;;;338462;28;96559;-87
2023/05/10 00:08:24;;;;;;;;;;;13.50;99.90;13.80;99443.00;;;;340668;28;82293;-87
2023/05/10 00:08:36;;;;;;;;;;;13.50;99.90;14.00;99444.00;;;;339389;28;95286;-87
2023/05/10 00:08:47;;;;;;;;;;;13.60;99.90;14.00;99446.00;;;;339296;28;82460;-88
2023/05/10 00:08:59;;;;;;;;;;;13.60;99.90;14.00;99447.00;;;;337386;28;94533;-87
2023/05/10 00:09:11;;;;;;;;;;;13.60;99.90;13.90;99446.00;;;;338131;28;83374;-88
2023/05/10 00:09:23;;;;;;;;;;;13.60;99.90;13.90;99449.00;;;;340878;28;94691;-87
2023/05/10 00:09:35;;;;;;;;;;;13.60;99.90;13.90;99451.00;;;;339402;28;83487;-87
2023/05/10 00:09:47;;;;;;;;;;;13.60;99.90;13.90;99460.00;;;;339959;28;93154;-87
2023/05/10 00:09:59;;;;;;;;;;;13.60;99.90;13.90;99459.00;;;;337937;28;83453;-87
2023/05/10 00:10:11;;;;;;;;;;;13.60;99.90;13.90;99464.00;;;;337368;28;94561;-87
2023/05/10 00:10:23;;;;;;;;;;;13.60;99.90;13.90;99468.00;;;;339332;28;83611;-88
2023/05/10 00:10:37;;;;;;;;;;;13.60;99.90;14.00;99467.00;;;;338529;28;94459;-87
2023/05/10 00:10:49;;;;;;;;;;;13.60;99.90;14.10;99472.00;;;;339386;28;83408;-87
2023/05/10 00:11:00;;;;;;;;;;;13.60;99.90;14.10;99467.00;;;;341151;28;96383;-87
2023/05/10 00:11:12;;;;;;;;;;;13.60;99.90;14.10;99471.00;;;;342128;28;83253;-87
2023/05/10 00:11:24;;;;;;;;;;;13.60;99.90;14.00;99474.00;;;;339834;28;94200;-87
2023/05/10 00:11:36;;;;;;;;;;;13.60;99.90;14.00;99470.00;;;;339505;28;83738;-87
2023/05/10 00:11:48;;;;;;;;;;;13.60;99.90;14.00;99478.00;;;;338721;28;93816;-87
2023/05/10 00:12:00;;;;;;;;;;;13.70;99.90;14.10;99476.00;;;;340639;28;83201;-87
2023/05/10 00:12:12;;;;;;;;;;;13.70;99.90;14.00;99476.00;;;;339993;28;94567;-87
2023/05/10 00:12:23;;;;;;;;;;;13.70;99.90;14.10;99466.00;;;;340239;28;83623;-88
2023/05/10 00:12:35;;;;;;;;;;;13.70;99.90;14.10;99465.00;;;;341264;28;94211;-87
2023/05/10 00:12:47;;;;;;;;;;;13.70;99.90;14.10;99480.00;;;;339378;28;83451;-87
2023/05/10 00:12:59;;;;;;;;;;;13.70;99.90;14.10;99458.00;;;;336058;28;93646;-87
2023/05/10 00:13:11;;;;;;;;;;;13.70;99.90;14.10;99471.00;;;;339448;28;83506;-87
2023/05/10 00:13:23;;;;;;;;;;;13.70;99.90;14.00;99474.00;;;;338335;28;95474;-87
2023/05/10 00:13:35;;;;;;;;;;;13.70;99.90;14.10;99468.00;;;;338054;28;83407;-87
2023/05/10 00:13:47;;;;;;;;;;;13.70;99.90;14.10;99469.00;;;;341384;28;93393;-87
2023/05/10 00:13:59;;;;;;;;;;;13.70;99.90;14.10;99469.00;;;;339381;28;83471;-87
2023/05/10 00:14:11;;;;;;;;;;;13.70;99.90;14.10;99477.00;;;;337158;28;95064;-87
2023/05/10 00:14:23;;;;;;;;;;;13.70;99.90;14.10;99473.00;;;;339505;28;82219;-87
2023/05/10 00:14:35;;;;;;;;;;;13.70;99.90;14.20;99475.00;;;;340011;28;93834;-87
2023/05/10 00:14:47;;;;;;;;;;;13.80;99.90;14.20;99467.00;;;;340762;28;83552;-87
2023/05/10 00:14:59;;;;;;;;;;;13.70;99.90;14.20;99461.00;;;;340083;28;92775;-88
2023/05/10 00:15:11;;;;;;;;;;;13.70;99.90;14.20;99455.00;;;;340690;28;83425;-88
2023/05/10 00:15:23;;;;;;;;;;;13.70;99.90;14.20;99458.00;;;;340938;28;96384;-87
2023/05/10 00:15:35;;;;;;;;;;;13.70;99.90;14.10;99462.00;;;;340296;28;83551;-87
2023/05/10 00:15:47;;;;;;;;;;;13.70;99.90;14.00;99465.00;;;;336100;28;94058;-88
2023/05/10 00:15:58;;;;;;;;;;;13.70;99.90;14.10;99470.00;;;;340582;28;83555;-87
2023/05/10 00:16:11;;;;;;;;;;;13.70;99.90;14.20;99468.00;;;;337031;28;95739;-87
2023/05/10 00:16:23;;;;;;;;;;;13.80;99.90;14.20;99468.00;;;;339311;28;83492;-88
2023/05/10 00:16:35;;;;;;;;;;;13.80;99.90;14.20;99460.00;;;;337343;28;93499;-87
2023/05/10 00:16:47;;;;;;;;;;;13.80;99.90;14.20;99457.00;;;;338079;28;83399;-87
2023/05/10 00:16:59;;;;;;;;;;;13.80;99.90;14.20;99463.00;;;;338602;28;94949;-88
2023/05/10 00:17:11;;;;;;;;;;;13.80;99.90;14.10;99472.00;;;;340741;28;83364;-87
2023/05/10 00:17:23;;;;;;;;;;;13.80;99.90;14.10;99470.00;;;;338511;28;93874;-87
2023/05/10 00:17:35;;;;;;;;;;;13.80;99.90;14.20;99468.00;;;;340699;28;82475;-87
2023/05/10 00:17:46;;;;;;;;;;;13.80;99.90;14.20;99471.00;;;;338367;28;96770;-87
2023/05/10 00:17:58;;;;;;;;;;;13.80;99.90;14.10;99478.00;;;;339425;28;83466;-86
2023/05/10 00:18:10;;;;;;;;;;;13.80;99.90;14.10;99469.00;;;;339991;28;94746;-88
2023/05/10 00:18:22;;;;;;;;;;;13.80;99.90;14.20;99467.00;;;;337934;28;83384;-87
2023/05/10 00:18:34;;;;;;;;;;;13.80;99.90;14.20;99468.00;;;;339693;28;95617;-87
2023/05/10 00:18:46;;;;;;;;;;;13.80;99.90;14.10;99469.00;;;;340617;28;83347;-87
2023/05/10 00:18:58;;;;;;;;;;;13.80;99.90;14.10;99466.00;;;;337124;28;95104;-88
2023/05/10 00:19:10;;;;;;;;;;;13.80;99.90;14.10;99462.00;;;;342117;28;82470;-87
2023/05/10 00:19:21;;;;;;;;;;;13.80;99.90;14.20;99469.00;;;;341220;28;95390;-87
2023/05/10 00:19:34;;;;;;;;;;;13.80;99.90;14.20;99466.00;;;;340471;28;83495;-87
2023/05/10 00:19:45;;;;;;;;;;;13.80;99.90;14.10;99463.00;;;;341341;28;94362;-87
2023/05/10 00:19:57;;;;;;;;;;;13.80;99.90;14.20;99468.00;;;;339379;28;83379;-87
2023/05/10 00:20:10;;;;;;;;;;;13.80;99.90;14.10;99469.00;;;;336047;28;93223;-87
2023/05/10 00:20:22;;;;;;;;;;;13.80;99.90;14.20;99469.00;;;;339224;28;82431;-86
2023/05/10 00:20:34;;;;;;;;;;;13.80;99.90;14.20;99463.00;;;;338311;28;93392;-87
2023/05/10 00:20:45;;;;;;;;;;;13.90;99.90;14.20;99468.00;;;;336935;28;83292;-88
2023/05/10 00:20:57;;;;;;;;;;;13.80;99.90;14.10;99470.00;;;;340183;28;96641;-87
2023/05/10 00:21:09;;;;;;;;;;;13.80;99.90;14.10;99474.00;;;;339797;28;83336;-86
2023/05/10 00:21:21;;;;;;;;;;;13.80;99.90;14.10;99467.00;;;;337375;28;97873;-87
2023/05/10 00:21:33;;;;;;;;;;;13.80;99.90;14.10;99472.00;;;;339720;28;82584;-87
2023/05/10 00:21:45;;;;;;;;;;;13.80;99.90;14.10;99468.00;;;;340428;28;92979;-87
2023/05/10 00:21:57;;;;;;;;;;;13.80;99.90;14.20;99463.00;;;;339625;28;82429;-87
2023/05/10 00:22:08;;;;;;;;;;;13.80;99.90;14.10;99466.00;;;;338951;28;94516;-87
2023/05/10 00:22:20;;;;;;;;;;;13.80;99.90;14.20;99460.00;;;;339745;28;83445;-87
2023/05/10 00:22:33;;;;;;;;;;;13.80;99.90;14.20;99467.00;;;;340270;28;91621;-87
2023/05/10 00:22:45;;;;;;;;;;;13.80;99.90;14.10;99467.00;;;;339653;28;82336;-87
2023/05/10 00:22:56;;;;;;;;;;;13.80;99.90;14.10;99470.00;;;;336444;28;93630;-88
2023/05/10 00:23:08;;;;;;;;;;;13.80;99.90;14.10;99464.00;;;;338384;28;83422;-87
2023/05/10 00:23:20;;;;;;;;;;;13.80;99.90;14.20;99468.00;;;;338799;28;95497;-87
2023/05/10 00:23:32;;;;;;;;;;;13.80;99.90;14.20;99467.00;;;;339617;28;83366;-87
2023/05/10 00:23:44;;;;;;;;;;;13.80;99.90;14.20;99468.00;;;;340081;28;97616;-87
2023/05/10 00:23:55;;;;;;;;;;;13.80;99.90;14.20;99471.00;;;;339717;28;82504;-87
2023/05/10 00:24:07;;;;;;;;;;;13.80;99.90;14.10;99470.00;;;;340122;28;94185;-87
2023/05/10 00:24:19;;;;;;;;;;;13.80;99.90;14.20;99470.00;;;;340369;28;83432;-87
2023/05/10 00:24:31;;;;;;;;;;;13.80;99.90;14.20;99463.00;;;;336014;28;94149;-86
2023/05/10 00:24:43;;;;;;;;;;;13.80;99.90;14.20;99462.00;;;;339574;28;82496;-87
2023/05/10 00:24:54;;;;;;;;;;;13.80;99.90;14.20;99466.00;;;;336126;28;93095;-87
2023/05/10 00:25:07;;;;;;;;;;;13.90;99.90;14.20;99467.00;;;;336159;28;83514;-87
2023/05/10 00:25:21;;;;;;;;;;;13.90;99.90;14.20;99466.00;;;;338555;28;96447;-87
2023/05/10 00:25:33;;;;;;;;;;;13.80;99.90;14.20;99476.00;;;;339383;28;83499;-89
2023/05/10 00:25:44;;;;;;;;;;;13.80;99.90;14.20;99467.00;;;;337320;28;94644;-89
2023/05/10 00:25:56;;;;;;;;;;;13.90;99.90;14.20;99468.00;;;;340611;28;82577;-88
2023/05/10 00:26:08;;;;;;;;;;;13.90;99.90;14.20;99465.00;;;;338554;28;91905;-89
2023/05/10 00:26:21;;;;;;;;;;;13.90;99.90;14.10;99468.00;;;;339439;28;83444;-89
2023/05/10 00:26:32;;;;;;;;;;;13.90;99.90;14.10;99462.00;;;;337362;28;93067;-89
2023/05/10 00:26:44;;;;;;;;;;;13.90;99.90;14.20;99465.00;;;;342067;28;83488;-89
2023/05/10 00:26:56;;;;;;;;;;;13.90;99.90;14.10;99461.00;;;;335656;28;93052;-89
2023/05/10 00:27:08;;;;;;;;;;;13.90;99.90;14.00;99467.00;;;;336758;28;83422;-87
2023/05/10 00:27:20;;;;;;;;;;;13.80;99.90;14.10;99468.00;;;;338522;28;94590;-86
2023/05/10 00:27:31;;;;;;;;;;;13.80;99.90;14.10;99468.00;;;;339275;28;83451;-87
2023/05/10 00:27:43;;;;;;;;;;;13.80;99.90;14.10;99473.00;;;;335883;28;96038;-87
2023/05/10 00:27:56;;;;;;;;;;;13.80;99.90;14.20;99472.00;;;;339390;28;82413;-87
2023/05/10 00:28:08;;;;;;;;;;;13.80;99.90;14.20;99474.00;;;;339913;28;95279;-87
2023/05/10 00:28:20;;;;;;;;;;;13.80;99.90;14.20;99472.00;;;;342108;28;82321;-87
2023/05/10 00:28:32;;;;;;;;;;;13.80;99.90;14.10;99471.00;;;;339291;28;96206;-86
2023/05/10 00:28:44;;;;;;;;;;;13.90;99.90;14.10;99472.00;;;;340745;28;83461;-87
2023/05/10 00:28:56;;;;;;;;;;;13.90;99.90;14.10;99467.00;;;;339578;28;97401;-86
2023/05/10 00:29:08;;;;;;;;;;;13.80;99.90;14.10;99463.00;;;;338183;28;82449;-87
2023/05/10 00:29:20;;;;;;;;;;;13.80;99.90;14.10;99468.00;;;;338248;28;96225;-87
2023/05/10 00:29:32;;;;;;;;;;;13.80;99.90;14.20;99475.00;;;;336762;28;82335;-87
2023/05/10 00:29:44;;;;;;;;;;;13.90;99.90;14.20;99473.00;;;;338163;28;97078;-87
2023/05/10 00:29:56;;;;;;;;;;;13.80;99.90;14.20;99473.00;;;;340585;28;83998;-87
2023/05/10 00:30:09;;;;;;;;;;;13.90;99.90;14.30;99473.00;;;;338631;28;94617;-87
2023/05/10 00:30:20;;;;;;;;;;;13.90;99.90;14.20;99468.00;;;;335375;29;83383;-87
2023/05/10 00:30:32;;;;;;;;;;;13.90;99.90;14.20;99470.00;;;;338660;28;93935;-87
2023/05/10 00:30:44;;;;;;;;;;;13.90;99.90;14.30;99465.00;;;;339116;28;82692;-87
2023/05/10 00:30:56;;;;;;;;;;;13.90;99.90;14.30;99468.00;;;;337196;28;97173;-87
2023/05/10 00:31:08;;;;;;;;;;;13.90;99.90;14.20;99466.00;;;;339215;28;83475;-86
2023/05/10 00:31:19;;;;;;;;;;;13.90;99.90;14.20;99468.00;;;;337156;28;97557;-87
2023/05/10 00:31:31;;;;;;;;;;;13.90;99.90;14.20;99469.00;;;;340608;28;83268;-87
2023/05/10 00:31:43;;;;;;;;;;;13.90;99.90;14.20;99466.00;;;;339945;28;93407;-86
2023/05/10 00:31:55;;;;;;;;;;;13.90;99.90;14.20;99463.00;;;;339288;28;83370;-86
2023/05/10 00:32:06;;;;;;;;;;;13.90;99.90;14.20;99470.00;;;;339851;28;94131;-86
2023/05/10 00:32:18;;;;;;;;;;;13.90;99.90;14.10;99471.00;;;;338992;28;83537;-87
2023/05/10 00:32:30;;;;;;;;;;;13.90;99.90;14.10;99476.00;;;;338612;28;94537;-86
2023/05/10 00:32:43;;;;;;;;;;;13.90;99.90;14.10;99479.00;;;;342037;28;82412;-87
2023/05/10 00:32:55;;;;;;;;;;;13.90;99.90;14.00;99474.00;;;;337062;28;95953;-85
2023/05/10 00:33:07;;;;;;;;;;;13.80;99.90;14.00;99484.00;;;;335464;29;83234;-86
2023/05/10 00:33:19;;;;;;;;;;;13.80;99.90;14.10;99474.00;;;;339735;28;94723;-86
2023/05/10 00:33:30;;;;;;;;;;;13.80;99.90;14.00;99477.00;;;;340477;28;83596;-86
2023/05/10 00:33:42;;;;;;;;;;;13.80;99.90;14.10;99473.00;;;;341313;28;93467;-86
2023/05/10 00:33:54;;;;;;;;;;;13.80;99.90;14.10;99473.00;;;;340750;28;83404;-86
2023/05/10 00:34:06;;;;;;;;;;;13.80;99.90;14.10;99470.00;;;;336967;28;94611;-87
2023/05/10 00:34:18;;;;;;;;;;;13.80;99.90;14.10;99467.00;;;;339494;28;82459;-86
2023/05/10 00:34:30;;;;;;;;;;;13.80;99.90;14.10;99469.00;;;;339915;28;94273;-86
2023/05/10 00:34:42;;;;;;;;;;;13.80;99.90;14.10;99469.00;;;;340639;28;83235;-87
2023/05/10 00:34:54;;;;;;;;;;;13.80;99.90;14.10;99472.00;;;;339981;28;95552;-87
2023/05/10 00:35:07;;;;;;;;;;;13.80;99.90;14.10;99477.00;;;;339001;28;83577;-87
2023/05/10 00:35:19;;;;;;;;;;;13.80;99.90;14.10;99467.00;;;;338468;28;98095;-86
2023/05/10 00:35:30;;;;;;;;;;;13.80;99.90;14.20;99468.00;;;;342162;28;82397;-85
2023/05/10 00:35:42;;;;;;;;;;;13.80;99.90;14.10;99475.00;;;;338645;28;93058;-86
2023/05/10 00:35:54;;;;;;;;;;;13.80;99.90;14.20;99469.00;;;;338013;28;83352;-86
2023/05/10 00:36:07;;;;;;;;;;;13.80;99.90;14.10;99474.00;;;;339707;28;97012;-87
2023/05/10 00:36:19;;;;;;;;;;;13.80;99.90;14.20;99468.00;;;;339236;28;83475;-87
2023/05/10 00:36:31;;;;;;;;;;;13.80;99.90;14.20;99476.00;;;;338486;28;94559;-87
2023/05/10 00:36:42;;;;;;;;;;;13.80;99.90;14.20;99469.00;;;;340672;28;83530;-87
2023/05/10 00:36:54;;;;;;;;;;;13.80;99.90;14.20;99477.00;;;;337328;28;94649;-87
2023/05/10 00:37:06;;;;;;;;;;;13.80;99.90;14.20;99469.00;;;;340704;28;82379;-86
2023/05/10 00:37:18;;;;;;;;;;;13.80;99.90;14.20;99468.00;;;;338492;28;97460;-86
2023/05/10 00:37:30;;;;;;;;;;;13.80;99.90;14.20;99474.00;;;;336780;28;82610;-86
2023/05/10 00:37:42;;;;;;;;;;;13.80;99.90;14.20;99475.00;;;;338444;28;96842;-87
2023/05/10 00:37:53;;;;;;;;;;;13.80;99.90;14.20;99471.00;;;;340677;28;83298;-87
2023/05/10 00:38:05;;;;;;;;;;;13.80;99.90;14.10;99465.00;;;;337276;28;93834;-87
2023/05/10 00:38:17;;;;;;;;;;;13.80;99.90;14.20;99475.00;;;;339406;28;83651;-87
2023/05/10 00:38:29;;;;;;;;;;;13.80;99.90;14.10;99473.00;;;;341230;28;94107;-87
2023/05/10 00:38:41;;;;;;;;;;;13.80;99.90;14.00;99471.00;;;;339202;28;82428;-85
2023/05/10 00:38:52;;;;;;;;;;;13.80;99.90;14.00;99474.00;;;;337299;28;94170;-86
2023/05/10 00:39:05;;;;;;;;;;;13.80;99.90;14.00;99455.00;;;;339420;28;83323;-86
2023/05/10 00:39:17;;;;;;;;;;;13.80;99.90;14.00;99472.00;;;;337039;28;96483;-86
2023/05/10 00:39:28;;;;;;;;;;;13.80;99.90;14.00;99478.00;;;;336771;28;83441;-87
2023/05/10 00:39:40;;;;;;;;;;;13.80;99.90;14.10;99470.00;;;;341147;28;93300;-87
2023/05/10 00:39:52;;;;;;;;;;;13.80;99.90;14.10;99463.00;;;;340546;28;83206;-87
2023/05/10 00:40:05;;;;;;;;;;;13.80;99.90;14.10;99473.00;;;;337277;28;93668;-87
2023/05/10 00:40:17;;;;;;;;;;;13.80;99.90;14.00;99473.00;;;;342087;28;83433;-86
2023/05/10 00:40:30;;;;;;;;;;;13.80;99.90;14.00;99464.00;;;;337249;28;94546;-87
2023/05/10 00:40:42;;;;;;;;;;;13.80;99.90;14.00;99474.00;;;;338091;28;82534;-87
2023/05/10 00:40:53;;;;;;;;;;;13.80;99.90;14.00;99472.00;;;;337347;28;93161;-86
2023/05/10 00:41:05;;;;;;;;;;;13.70;99.90;14.10;99470.00;;;;339078;28;83561;-86
2023/05/10 00:41:17;;;;;;;;;;;13.80;99.90;14.10;99472.00;;;;338153;28;95211;-86
2023/05/10 00:41:32;;;;;;;;;;;13.80;99.90;14.10;99459.00;;;;338009;28;83358;-86
2023/05/10 00:41:43;;;;;;;;;;;13.80;99.90;14.00;99472.00;;;;339820;28;94542;-87
2023/05/10 00:41:55;;;;;;;;;;;13.80;99.90;14.10;99462.00;;;;339204;28;82516;-86
2023/05/10 00:42:07;;;;;;;;;;;13.80;99.90;14.10;99465.00;;;;335854;28;96276;-86
2023/05/10 00:42:19;;;;;;;;;;;13.70;99.90;14.00;99476.00;;;;340732;28;82495;-87
2023/05/10 00:42:30;;;;;;;;;;;13.70;99.90;14.00;99470.00;;;;341052;28;95420;-86
2023/05/10 00:42:42;;;;;;;;;;;13.80;99.90;14.10;99465.00;;;;340661;28;83341;-87
2023/05/10 00:42:54;;;;;;;;;;;13.70;99.90;14.00;99475.00;;;;337423;28;92670;-86
2023/05/10 00:43:06;;;;;;;;;;;13.70;99.90;14.00;99473.00;;;;339442;28;82386;-86
2023/05/10 00:43:17;;;;;;;;;;;13.70;99.90;14.00;99475.00;;;;339523;28;97419;-87
2023/05/10 00:43:29;;;;;;;;;;;13.70;99.90;14.00;99473.00;;;;337896;28;83656;-87
2023/05/10 00:43:41;;;;;;;;;;;13.70;99.90;14.10;99477.00;;;;337418;28;93845;-86
2023/05/10 00:43:53;;;;;;;;;;;13.70;99.90;14.10;99468.00;;;;338073;28;83084;-86
2023/05/10 00:44:05;;;;;;;;;;;13.80;99.90;14.10;99468.00;;;;338429;28;96500;-87
2023/05/10 00:44:18;;;;;;;;;;;13.70;99.90;14.00;99466.00;;;;339448;28;82329;-88
2023/05/10 00:44:30;;;;;;;;;;;13.70;99.90;14.10;99469.00;;;;338106;28;95318;-89
2023/05/10 00:44:42;;;;;;;;;;;13.70;99.90;14.10;99464.00;;;;340789;28;82528;-86
2023/05/10 00:44:54;;;;;;;;;;;13.70;99.90;14.00;99466.00;;;;341034;28;96709;-86
2023/05/10 00:45:07;;;;;;;;;;;13.70;99.90;14.10;99468.00;;;;339057;28;83510;-86
2023/05/10 00:45:19;;;;;;;;;;;13.80;99.90;14.00;99468.00;;;;336829;28;96773;-86
2023/05/10 00:45:33;;;;;;;;;;;13.80;99.90;14.00;99470.00;;;;340658;28;83419;-86
2023/05/10 00:45:45;;;;;;;;;;;13.70;99.90;14.00;99470.00;;;;339964;28;93074;-86
2023/05/10 00:45:57;;;;;;;;;;;13.70;99.90;14.00;99468.00;;;;336674;28;83524;-87
2023/05/10 00:46:09;;;;;;;;;;;13.70;99.90;14.00;99466.00;;;;336960;28;96773;-87
2023/05/10 00:46:21;;;;;;;;;;;13.80;99.90;14.10;99466.00;;;;339387;28;83323;-87
2023/05/10 00:46:33;;;;;;;;;;;13.70;99.90;14.10;99472.00;;;;338517;28;93184;-86
2023/05/10 00:46:45;;;;;;;;;;;13.70;99.90;14.10;99469.00;;;;337998;28;82359;-87
2023/05/10 00:46:57;;;;;;;;;;;13.70;99.90;14.10;99470.00;;;;339726;28;96245;-87
2023/05/10 00:47:08;;;;;;;;;;;13.80;99.90;14.10;99473.00;;;;340526;28;82626;-87
2023/05/10 00:47:20;;;;;;;;;;;13.70;99.90;14.10;99468.00;;;;338471;28;98019;-88
2023/05/10 00:47:32;;;;;;;;;;;13.70;99.90;14.10;99464.00;;;;340573;28;82578;-87
2023/05/10 00:47:44;;;;;;;;;;;13.80;99.90;14.10;99468.00;;;;338403;28;95709;-87
2023/05/10 00:47:56;;;;;;;;;;;13.70;99.90;14.10;99462.00;;;;339142;28;83662;-86
2023/05/10 00:48:08;;;;;;;;;;;13.70;99.90;14.10;99466.00;;;;339817;28;96625;-87
2023/05/10 00:48:20;;;;;;;;;;;13.80;99.90;14.20;99471.00;;;;339437;28;83276;-87
2023/05/10 00:48:32;;;;;;;;;;;13.70;99.90;14.20;99467.00;;;;339863;28;94069;-86
2023/05/10 00:48:43;;;;;;;;;;;13.80;99.90;14.20;99477.00;;;;343118;28;83299;-87
2023/05/10 00:48:55;;;;;;;;;;;13.80;99.90;14.20;99473.00;;;;341253;28;93506;-87
2023/05/10 00:49:07;;;;;;;;;;;13.80;99.90;14.20;99470.00;;;;340791;28;83300;-87
2023/05/10 00:49:19;;;;;;;;;;;13.80;99.90;14.20;99470.00;;;;339723;28;94770;-86
2023/05/10 00:49:31;;;;;;;;;;;13.80;99.90;14.20;99475.00;;;;336760;28;83208;-87
2023/05/10 00:49:43;;;;;;;;;;;13.80;99.90;14.20;99470.00;;;;337367;28;94177;-87
2023/05/10 00:49:55;;;;;;;;;;;13.80;99.90;14.20;99476.00;;;;339397;28;82468;-87
2023/05/10 00:50:08;;;;;;;;;;;13.80;99.90;14.10;99471.00;;;;337365;28;93379;-86
2023/05/10 00:50:21;;;;;;;;;;;13.80;99.90;14.20;99472.00;;;;336563;28;83395;-86
2023/05/10 00:50:33;;;;;;;;;;;13.80;99.90;14.20;99475.00;;;;337079;28;93970;-87
2023/05/10 00:50:45;;;;;;;;;;;13.80;99.90;14.20;99473.00;;;;338007;28;82556;-87
2023/05/10 00:50:57;;;;;;;;;;;13.80;99.90;14.20;99474.00;;;;339914;28;94423;-87
2023/05/10 00:51:09;;;;;;;;;;;13.80;99.90;14.20;99477.00;;;;339444;28;82421;-87
2023/05/10 00:51:21;;;;;;;;;;;13.80;99.90;14.20;99477.00;;;;337253;28;94802;-87
2023/05/10 00:51:32;;;;;;;;;;;13.80;99.90;14.20;99476.00;;;;340465;28;82652;-87
2023/05/10 00:51:44;;;;;;;;;;;13.90;99.90;14.20;99473.00;;;;338481;28;97103;-87
2023/05/10 00:51:56;;;;;;;;;;;13.90;99.90;14.20;99478.00;;;;340744;28;83390;-87
2023/05/10 00:52:09;;;;;;;;;;;13.90;99.90;14.20;99478.00;;;;337079;28;95911;-86
2023/05/10 00:52:23;;;;;;;;;;;13.90;99.90;14.20;99474.00;;;;340739;28;82494;-87
2023/05/10 00:52:34;;;;;;;;;;;13.90;99.90;14.30;99480.00;;;;339831;28;94621;-87
2023/05/10 00:52:46;;;;;;;;;;;13.90;99.90;14.20;99474.00;;;;339110;28;82473;-87
2023/05/10 00:52:59;;;;;;;;;;;13.90;99.90;14.20;99475.00;;;;338439;28;92709;-87
2023/05/10 00:53:10;;;;;;;;;;;13.90;99.90;14.30;99470.00;;;;336426;28;83260;-86
2023/05/10 00:53:22;;;;;;;;;;;13.90;99.90;14.30;99473.00;;;;336890;28;94556;-87
2023/05/10 00:53:34;;;;;;;;;;;13.90;99.90;14.20;99471.00;;;;339191;28;83617;-87
2023/05/10 00:53:46;;;;;;;;;;;13.90;99.90;14.20;99483.00;;;;336938;28;96726;-87
2023/05/10 00:53:58;;;;;;;;;;;13.90;99.90;14.20;99480.00;;;;339093;28;83528;-87
2023/05/10 00:54:11;;;;;;;;;;;13.90;99.90;14.20;99470.00;;;;338367;28;93420;-87
2023/05/10 00:54:23;;;;;;;;;;;13.90;99.90;14.20;99475.00;;;;336772;28;82384;-87
2023/05/10 00:54:35;;;;;;;;;;;13.90;99.90;14.30;99477.00;;;;338567;28;94742;-87
2023/05/10 00:54:47;;;;;;;;;;;13.90;99.90;14.20;99468.00;;;;340402;28;82669;-87
2023/05/10 00:54:59;;;;;;;;;;;13.90;99.90;14.30;99467.00;;;;337328;28;92667;-87
2023/05/10 00:55:11;;;;;;;;;;;13.90;99.90;14.30;99486.00;;;;340746;28;83400;-87
2023/05/10 00:55:22;;;;;;;;;;;13.90;99.90;14.30;99477.00;;;;339628;28;93731;-86
2023/05/10 00:55:34;;;;;;;;;;;13.90;99.90;14.20;99472.00;;;;336759;28;83393;-87
2023/05/10 00:55:46;;;;;;;;;;;13.90;99.90;14.30;99479.00;;;;338634;28;94536;-87
2023/05/10 00:55:59;;;;;;;;;;;13.90;99.90;14.20;99483.00;;;;339167;28;83491;-87
2023/05/10 00:56:12;;;;;;;;;;;13.90;99.90;14.30;99473.00;;;;338596;28;94680;-87
2023/05/10 00:56:24;;;;;;;;;;;13.90;99.90;14.30;99485.00;;;;340707;28;83379;-87
2023/05/10 00:56:36;;;;;;;;;;;13.90;99.90;14.30;99483.00;;;;338623;28;93129;-87
2023/05/10 00:56:49;;;;;;;;;;;13.90;99.90;14.20;99474.00;;;;339272;28;83511;-87
2023/05/10 00:57:01;;;;;;;;;;;13.90;99.90;14.20;99473.00;;;;339917;28;92776;-86
2023/05/10 00:57:12;;;;;;;;;;;13.90;99.90;14.20;99481.00;;;;342098;28;82437;-86
2023/05/10 00:57:24;;;;;;;;;;;13.90;99.90;14.30;99476.00;;;;338262;28;94767;-87
2023/05/10 00:57:36;;;;;;;;;;;13.90;99.90;14.30;99484.00;;;;340555;28;83789;-87
2023/05/10 00:57:48;;;;;;;;;;;13.90;99.90;14.40;99473.00;;;;339925;28;94548;-87
2023/05/10 00:57:59;;;;;;;;;;;14.00;99.90;14.30;99473.00;;;;336675;28;82394;-86
2023/05/10 00:58:12;;;;;;;;;;;13.90;99.90;14.30;99480.00;;;;337236;28;94681;-87
2023/05/10 00:58:30;;;;;;;;;;;14.00;99.90;14.40;99483.00;;;;340379;28;83500;-87
2023/05/10 00:58:42;;;;;;;;;;;14.00;99.90;14.30;99477.00;;;;339632;28;96373;-87
2023/05/10 00:58:54;;;;;;;;;;;14.00;99.90;14.20;99486.00;;;;338154;28;83282;-86
2023/05/10 00:59:09;;;;;;;;;;;14.00;99.90;14.20;99477.00;;;;339612;28;95398;-87
2023/05/10 00:59:21;;;;;;;;;;;14.00;99.90;14.10;99480.00;;;;341790;28;82662;-87
2023/05/10 00:59:33;;;;;;;;;;;13.90;99.90;14.10;99484.00;;;;337183;28;95124;-86